Kaukauna, WI (54130)

6:03 PM CDT on July 25, 2016 (GMT -0500)
Wrightstown Broadway St | | Change Station

Elev 642 ft 44.33 °N, 88.17 °W | Updated 3 minutes ago

Partly Cloudy
Partly Cloudy
82.9 °F
Feels Like 85 °F
N
3.2
Wind Variable Wind from NNW

Today
High -- | Low -- °F
--% Chance of Precip.
Yesterday
High -- | Low -- °F
Precip. -- in
Pressure 29.96 in
Visibility 10.0 miles
Clouds Few 6000 ft
Heat Index 85 °F
Dew Point 64 °F
Humidity 54%
Rainfall 0.00 in
Snow Depth Not available.
5:33 AM 8:25 PM
Waning Gibbous, 61% visible
METAR KGRB 252253Z 30008KT 10SM FEW060 28/18 A2996 RMK AO2 SLP144 T02830178
Pressure 29.96 in
Visibility 10.0 miles
Clouds Few 6000 ft
Heat Index 85 °F
Dew Point 64 °F
Humidity 54%
Rainfall 0.00 in
Snow Depth Not available.
5:33 AM 8:25 PM
Waning Gibbous, 61% visible
METAR KGRB 252253Z 30008KT 10SM FEW060 28/18 A2996 RMK AO2 SLP144 T02830178

10-Day Weather Forecast

Almanac

Astronomy

Jul. 25, 2016 Rise Set
Actual Time
Civil Twilight
Nautical Twilight
Astronomical Twilight
Moon
Length of Visible Light
Length of Day
Tomorrow will be .
, % of the Moon is Illuminated

Today's Extremes

State Highs State Lows

Community

WunderPhotos

Upload Photos

1,927,441 photos uploaded!

WunderBlog® & News

Nearby

Air Quality

  Air Quality AQ Index Pollutant
Not available.

Snow Depth

Station Depth Elevation

Earthquake Activity

City Distance Mag. Time & Date
Minimum magnitude displayed is 2.5.

Coastal Water Temperatures

Place Temperature

Stations

Nearby Weather Stations

Station Location Temp. Windchill Dew Point Humidity Wind Precip. Elev Updated Type
                   

Watches & Warnings

There are currently no watches in effect.